sensor_id;sensor_type;location;lat;lon;timestamp;P1;durP1;ratioP1;P2;durP2;ratioP2
8100;SDS011;4093;53.470;9.832;2024-03-25T00:01:46;5.17;;;2.43;;
8100;SDS011;4093;53.470;9.832;2024-03-25T00:04:13;7.23;;;2.37;;
8100;SDS011;4093;53.470;9.832;2024-03-25T00:06:39;6.53;;;2.97;;
8100;SDS011;4093;53.470;9.832;2024-03-25T00:09:06;8.33;;;3.13;;
8100;SDS011;4093;53.470;9.832;2024-03-25T00:11:33;9.03;;;2.60;;
8100;SDS011;4093;53.470;9.832;2024-03-25T00:14:00;5.73;;;2.50;;
8100;SDS011;4093;53.470;9.832;2024-03-25T00:16:27;3.73;;;2.67;;
8100;SDS011;4093;53.470;9.832;2024-03-25T00:18:53;6.73;;;2.47;;
8100;SDS011;4093;53.470;9.832;2024-03-25T00:21:19;4.20;;;2.60;;
8100;SDS011;4093;53.470;9.832;2024-03-25T00:23:46;10.63;;;2.97;;
8100;SDS011;4093;53.470;9.832;2024-03-25T00:26:12;8.33;;;3.17;;
8100;SDS011;4093;53.470;9.832;2024-03-25T00:28:38;7.50;;;2.90;;
8100;SDS011;4093;53.470;9.832;2024-03-25T00:31:04;9.77;;;2.70;;
8100;SDS011;4093;53.470;9.832;2024-03-25T00:33:32;8.03;;;2.47;;
8100;SDS011;4093;53.470;9.832;2024-03-25T00:35:58;5.40;;;2.87;;
8100;SDS011;4093;53.470;9.832;2024-03-25T00:38:25;6.47;;;2.70;;
8100;SDS011;4093;53.470;9.832;2024-03-25T00:40:51;5.67;;;2.63;;
8100;SDS011;4093;53.470;9.832;2024-03-25T00:43:17;6.20;;;2.47;;
8100;SDS011;4093;53.470;9.832;2024-03-25T00:45:43;7.47;;;3.43;;
8100;SDS011;4093;53.470;9.832;2024-03-25T00:48:10;7.47;;;2.83;;
8100;SDS011;4093;53.470;9.832;2024-03-25T00:50:38;6.10;;;2.70;;
8100;SDS011;4093;53.470;9.832;2024-03-25T00:53:05;18.17;;;3.40;;
8100;SDS011;4093;53.470;9.832;2024-03-25T00:55:33;8.03;;;2.90;;
8100;SDS011;4093;53.470;9.832;2024-03-25T00:58:01;6.07;;;2.73;;
8100;SDS011;4093;53.470;9.832;2024-03-25T01:00:26;9.33;;;3.00;;
8100;SDS011;4093;53.470;9.832;2024-03-25T01:02:53;6.33;;;2.80;;
8100;SDS011;4093;53.470;9.832;2024-03-25T01:05:19;4.07;;;2.53;;
8100;SDS011;4093;53.470;9.832;2024-03-25T01:07:47;6.53;;;2.97;;
8100;SDS011;4093;53.470;9.832;2024-03-25T01:10:14;6.03;;;2.73;;
8100;SDS011;4093;53.470;9.832;2024-03-25T01:12:41;4.83;;;2.90;;
8100;SDS011;4093;53.470;9.832;2024-03-25T01:15:07;4.57;;;2.70;;
8100;SDS011;4093;53.470;9.832;2024-03-25T01:17:35;4.10;;;2.73;;
8100;SDS011;4093;53.470;9.832;2024-03-25T01:20:01;8.60;;;2.70;;
8100;SDS011;4093;53.470;9.832;2024-03-25T01:22:29;8.03;;;2.93;;
8100;SDS011;4093;53.470;9.832;2024-03-25T01:24:57;6.40;;;2.93;;
8100;SDS011;4093;53.470;9.832;2024-03-25T01:27:24;7.13;;;2.97;;
8100;SDS011;4093;53.470;9.832;2024-03-25T01:29:50;5.97;;;3.13;;
8100;SDS011;4093;53.470;9.832;2024-03-25T01:32:17;5.00;;;2.60;;
8100;SDS011;4093;53.470;9.832;2024-03-25T01:34:43;5.73;;;3.20;;
8100;SDS011;4093;53.470;9.832;2024-03-25T01:37:10;9.37;;;2.80;;
8100;SDS011;4093;53.470;9.832;2024-03-25T01:39:36;5.87;;;2.70;;
8100;SDS011;4093;53.470;9.832;2024-03-25T01:42:05;5.50;;;2.57;;
8100;SDS011;4093;53.470;9.832;2024-03-25T01:44:31;5.97;;;2.40;;
8100;SDS011;4093;53.470;9.832;2024-03-25T01:46:58;12.90;;;3.27;;
8100;SDS011;4093;53.470;9.832;2024-03-25T01:49:24;9.13;;;3.13;;
8100;SDS011;4093;53.470;9.832;2024-03-25T01:51:51;6.67;;;2.67;;
8100;SDS011;4093;53.470;9.832;2024-03-25T01:54:17;9.40;;;2.93;;
8100;SDS011;4093;53.470;9.832;2024-03-25T01:56:44;6.93;;;2.70;;
8100;SDS011;4093;53.470;9.832;2024-03-25T01:59:13;5.03;;;2.43;;
8100;SDS011;4093;53.470;9.832;2024-03-25T02:01:42;6.60;;;2.87;;
8100;SDS011;4093;53.470;9.832;2024-03-25T02:04:09;7.50;;;2.90;;
8100;SDS011;4093;53.470;9.832;2024-03-25T02:06:37;4.83;;;2.57;;
8100;SDS011;4093;53.470;9.832;2024-03-25T02:09:06;5.50;;;2.87;;
8100;SDS011;4093;53.470;9.832;2024-03-25T02:11:35;9.63;;;3.00;;
8100;SDS011;4093;53.470;9.832;2024-03-25T02:14:01;11.57;;;3.00;;
8100;SDS011;4093;53.470;9.832;2024-03-25T02:16:29;10.80;;;2.80;;
8100;SDS011;4093;53.470;9.832;2024-03-25T02:18:55;7.93;;;2.50;;
8100;SDS011;4093;53.470;9.832;2024-03-25T02:21:22;4.00;;;2.63;;
8100;SDS011;4093;53.470;9.832;2024-03-25T02:23:47;5.23;;;2.80;;
8100;SDS011;4093;53.470;9.832;2024-03-25T02:26:17;5.10;;;2.60;;
8100;SDS011;4093;53.470;9.832;2024-03-25T02:28:43;8.60;;;3.13;;
8100;SDS011;4093;53.470;9.832;2024-03-25T02:31:10;4.80;;;2.63;;
8100;SDS011;4093;53.470;9.832;2024-03-25T02:33:35;7.33;;;2.90;;
8100;SDS011;4093;53.470;9.832;2024-03-25T02:36:02;7.53;;;2.40;;
8100;SDS011;4093;53.470;9.832;2024-03-25T02:38:28;4.67;;;2.63;;
8100;SDS011;4093;53.470;9.832;2024-03-25T02:40:55;8.07;;;2.97;;
8100;SDS011;4093;53.470;9.832;2024-03-25T02:43:22;7.30;;;2.97;;
8100;SDS011;4093;53.470;9.832;2024-03-25T02:45:49;7.40;;;3.37;;
8100;SDS011;4093;53.470;9.832;2024-03-25T02:48:15;5.97;;;2.67;;
8100;SDS011;4093;53.470;9.832;2024-03-25T02:50:41;5.90;;;3.07;;
8100;SDS011;4093;53.470;9.832;2024-03-25T02:53:07;9.27;;;2.97;;
8100;SDS011;4093;53.470;9.832;2024-03-25T02:55:34;7.03;;;3.20;;
8100;SDS011;4093;53.470;9.832;2024-03-25T02:58:00;5.00;;;2.50;;
8100;SDS011;4093;53.470;9.832;2024-03-25T03:00:28;6.73;;;2.60;;
8100;SDS011;4093;53.470;9.832;2024-03-25T03:02:53;5.53;;;3.07;;
8100;SDS011;4093;53.470;9.832;2024-03-25T03:05:20;5.13;;;2.87;;
8100;SDS011;4093;53.470;9.832;2024-03-25T03:07:46;4.90;;;2.93;;
8100;SDS011;4093;53.470;9.832;2024-03-25T03:10:13;6.87;;;3.10;;
8100;SDS011;4093;53.470;9.832;2024-03-25T03:12:39;8.17;;;3.03;;
8100;SDS011;4093;53.470;9.832;2024-03-25T03:15:06;7.37;;;2.70;;
8100;SDS011;4093;53.470;9.832;2024-03-25T03:17:33;4.87;;;2.90;;
8100;SDS011;4093;53.470;9.832;2024-03-25T03:20:00;5.10;;;2.80;;
8100;SDS011;4093;53.470;9.832;2024-03-25T03:22:26;9.40;;;2.87;;
8100;SDS011;4093;53.470;9.832;2024-03-25T03:24:52;6.33;;;2.63;;
8100;SDS011;4093;53.470;9.832;2024-03-25T03:27:18;5.00;;;2.50;;
8100;SDS011;4093;53.470;9.832;2024-03-25T03:29:45;7.63;;;2.67;;
8100;SDS011;4093;53.470;9.832;2024-03-25T03:32:10;3.60;;;2.43;;
8100;SDS011;4093;53.470;9.832;2024-03-25T03:34:38;6.27;;;2.50;;
8100;SDS011;4093;53.470;9.832;2024-03-25T03:37:04;3.00;;;1.90;;
8100;SDS011;4093;53.470;9.832;2024-03-25T03:39:31;8.30;;;2.30;;
8100;SDS011;4093;53.470;9.832;2024-03-25T03:41:57;6.17;;;2.30;;
8100;SDS011;4093;53.470;9.832;2024-03-25T03:44:24;5.57;;;2.40;;
8100;SDS011;4093;53.470;9.832;2024-03-25T03:46:49;3.97;;;2.30;;
8100;SDS011;4093;53.470;9.832;2024-03-25T03:49:16;4.90;;;2.20;;
8100;SDS011;4093;53.470;9.832;2024-03-25T03:51:43;4.97;;;2.37;;
8100;SDS011;4093;53.470;9.832;2024-03-25T03:54:10;4.80;;;2.50;;
8100;SDS011;4093;53.470;9.832;2024-03-25T03:56:36;4.60;;;2.27;;
8100;SDS011;4093;53.470;9.832;2024-03-25T03:59:03;3.63;;;2.13;;
8100;SDS011;4093;53.470;9.832;2024-03-25T04:01:29;5.83;;;2.60;;
8100;SDS011;4093;53.470;9.832;2024-03-25T04:03:56;4.27;;;2.40;;
8100;SDS011;4093;53.470;9.832;2024-03-25T04:06:22;3.80;;;2.57;;
8100;SDS011;4093;53.470;9.832;2024-03-25T04:08:50;3.87;;;2.20;;
8100;SDS011;4093;53.470;9.832;2024-03-25T04:11:16;4.97;;;2.50;;
8100;SDS011;4093;53.470;9.832;2024-03-25T04:13:43;3.50;;;2.30;;
8100;SDS011;4093;53.470;9.832;2024-03-25T04:16:09;4.17;;;2.00;;
8100;SDS011;4093;53.470;9.832;2024-03-25T04:18:36;3.33;;;2.20;;
8100;SDS011;4093;53.470;9.832;2024-03-25T04:21:01;5.63;;;2.50;;
8100;SDS011;4093;53.470;9.832;2024-03-25T04:23:29;4.90;;;2.57;;
8100;SDS011;4093;53.470;9.832;2024-03-25T04:26:00;3.87;;;2.27;;
8100;SDS011;4093;53.470;9.832;2024-03-25T04:28:27;6.70;;;2.60;;
8100;SDS011;4093;53.470;9.832;2024-03-25T04:30:53;3.97;;;2.60;;
8100;SDS011;4093;53.470;9.832;2024-03-25T04:33:20;4.63;;;2.30;;
8100;SDS011;4093;53.470;9.832;2024-03-25T04:35:46;3.47;;;2.50;;
8100;SDS011;4093;53.470;9.832;2024-03-25T04:38:15;3.33;;;2.47;;
8100;SDS011;4093;53.470;9.832;2024-03-25T04:40:41;4.87;;;2.50;;
8100;SDS011;4093;53.470;9.832;2024-03-25T04:43:09;4.93;;;2.73;;
8100;SDS011;4093;53.470;9.832;2024-03-25T04:45:34;3.10;;;2.43;;
8100;SDS011;4093;53.470;9.832;2024-03-25T04:48:00;5.17;;;2.57;;
8100;SDS011;4093;53.470;9.832;2024-03-25T04:50:26;5.77;;;2.70;;
8100;SDS011;4093;53.470;9.832;2024-03-25T04:52:52;4.77;;;2.47;;
8100;SDS011;4093;53.470;9.832;2024-03-25T04:55:18;6.70;;;2.87;;
8100;SDS011;4093;53.470;9.832;2024-03-25T04:57:44;3.67;;;2.30;;
8100;SDS011;4093;53.470;9.832;2024-03-25T05:00:12;3.93;;;2.40;;
8100;SDS011;4093;53.470;9.832;2024-03-25T05:02:38;4.27;;;2.73;;
8100;SDS011;4093;53.470;9.832;2024-03-25T05:05:04;4.17;;;2.70;;
8100;SDS011;4093;53.470;9.832;2024-03-25T05:07:31;4.03;;;2.43;;
8100;SDS011;4093;53.470;9.832;2024-03-25T05:09:56;3.63;;;2.40;;
8100;SDS011;4093;53.470;9.832;2024-03-25T05:12:22;5.60;;;2.70;;
8100;SDS011;4093;53.470;9.832;2024-03-25T05:14:48;4.47;;;2.50;;
8100;SDS011;4093;53.470;9.832;2024-03-25T05:17:15;4.53;;;2.50;;
8100;SDS011;4093;53.470;9.832;2024-03-25T05:19:41;3.53;;;2.53;;
8100;SDS011;4093;53.470;9.832;2024-03-25T05:22:07;3.70;;;2.40;;
8100;SDS011;4093;53.470;9.832;2024-03-25T05:24:33;3.77;;;2.60;;
8100;SDS011;4093;53.470;9.832;2024-03-25T05:26:59;5.70;;;2.37;;
8100;SDS011;4093;53.470;9.832;2024-03-25T05:29:24;4.23;;;2.50;;
8100;SDS011;4093;53.470;9.832;2024-03-25T05:32:00;3.87;;;2.40;;
8100;SDS011;4093;53.470;9.832;2024-03-25T05:34:28;2.80;;;2.27;;
8100;SDS011;4093;53.470;9.832;2024-03-25T05:36:54;3.50;;;2.30;;
8100;SDS011;4093;53.470;9.832;2024-03-25T05:39:20;4.80;;;2.87;;
8100;SDS011;4093;53.470;9.832;2024-03-25T05:41:46;4.17;;;2.60;;
8100;SDS011;4093;53.470;9.832;2024-03-25T05:44:13;5.20;;;2.67;;
8100;SDS011;4093;53.470;9.832;2024-03-25T05:46:39;5.47;;;2.80;;
8100;SDS011;4093;53.470;9.832;2024-03-25T05:49:05;8.07;;;3.03;;
8100;SDS011;4093;53.470;9.832;2024-03-25T05:51:33;4.70;;;2.80;;
8100;SDS011;4093;53.470;9.832;2024-03-25T05:53:59;3.60;;;2.57;;
8100;SDS011;4093;53.470;9.832;2024-03-25T05:56:25;7.97;;;2.70;;
8100;SDS011;4093;53.470;9.832;2024-03-25T05:58:50;6.70;;;3.20;;
8100;SDS011;4093;53.470;9.832;2024-03-25T06:01:16;3.77;;;2.70;;
8100;SDS011;4093;53.470;9.832;2024-03-25T06:03:42;4.10;;;2.80;;
8100;SDS011;4093;53.470;9.832;2024-03-25T06:06:08;6.03;;;2.83;;
8100;SDS011;4093;53.470;9.832;2024-03-25T06:08:35;6.93;;;3.30;;
8100;SDS011;4093;53.470;9.832;2024-03-25T06:11:01;3.63;;;2.63;;
8100;SDS011;4093;53.470;9.832;2024-03-25T06:13:27;3.83;;;2.90;;
8100;SDS011;4093;53.470;9.832;2024-03-25T06:15:53;5.33;;;3.20;;
8100;SDS011;4093;53.470;9.832;2024-03-25T06:18:19;5.90;;;3.17;;
8100;SDS011;4093;53.470;9.832;2024-03-25T06:20:45;5.43;;;3.47;;
8100;SDS011;4093;53.470;9.832;2024-03-25T06:23:10;7.00;;;3.27;;
8100;SDS011;4093;53.470;9.832;2024-03-25T06:25:48;7.20;;;3.37;;
8100;SDS011;4093;53.470;9.832;2024-03-25T06:28:14;8.47;;;3.63;;
8100;SDS011;4093;53.470;9.832;2024-03-25T06:30:40;5.77;;;3.33;;
8100;SDS011;4093;53.470;9.832;2024-03-25T06:33:24;4.67;;;3.63;;
8100;SDS011;4093;53.470;9.832;2024-03-25T06:36:08;8.20;;;3.60;;
8100;SDS011;4093;53.470;9.832;2024-03-25T06:38:34;7.33;;;3.90;;
8100;SDS011;4093;53.470;9.832;2024-03-25T06:41:01;8.33;;;4.40;;
8100;SDS011;4093;53.470;9.832;2024-03-25T06:43:27;7.07;;;4.13;;
8100;SDS011;4093;53.470;9.832;2024-03-25T06:45:53;8.30;;;3.53;;
8100;SDS011;4093;53.470;9.832;2024-03-25T06:48:19;8.07;;;3.83;;
8100;SDS011;4093;53.470;9.832;2024-03-25T06:50:51;10.43;;;4.30;;
8100;SDS011;4093;53.470;9.832;2024-03-25T06:53:18;7.37;;;4.37;;
8100;SDS011;4093;53.470;9.832;2024-03-25T06:55:50;6.67;;;4.13;;
8100;SDS011;4093;53.470;9.832;2024-03-25T06:58:18;7.97;;;4.60;;
8100;SDS011;4093;53.470;9.832;2024-03-25T07:00:44;7.50;;;4.20;;
8100;SDS011;4093;53.470;9.832;2024-03-25T07:03:10;8.10;;;4.10;;
8100;SDS011;4093;53.470;9.832;2024-03-25T07:05:36;7.03;;;4.37;;
8100;SDS011;4093;53.470;9.832;2024-03-25T07:08:02;6.13;;;4.13;;
8100;SDS011;4093;53.470;9.832;2024-03-25T07:10:28;9.53;;;4.17;;
8100;SDS011;4093;53.470;9.832;2024-03-25T07:12:54;8.43;;;3.60;;
8100;SDS011;4093;53.470;9.832;2024-03-25T07:15:21;6.83;;;4.00;;
8100;SDS011;4093;53.470;9.832;2024-03-25T07:17:47;10.40;;;4.40;;
8100;SDS011;4093;53.470;9.832;2024-03-25T07:20:13;9.53;;;4.23;;
8100;SDS011;4093;53.470;9.832;2024-03-25T07:22:39;12.17;;;4.00;;
8100;SDS011;4093;53.470;9.832;2024-03-25T07:25:05;8.43;;;3.87;;
8100;SDS011;4093;53.470;9.832;2024-03-25T07:27:31;8.03;;;4.23;;
8100;SDS011;4093;53.470;9.832;2024-03-25T07:29:57;8.63;;;3.97;;
8100;SDS011;4093;53.470;9.832;2024-03-25T07:32:24;7.63;;;3.53;;
8100;SDS011;4093;53.470;9.832;2024-03-25T07:34:50;7.17;;;3.63;;
8100;SDS011;4093;53.470;9.832;2024-03-25T07:37:16;7.10;;;3.70;;
8100;SDS011;4093;53.470;9.832;2024-03-25T07:39:42;9.87;;;4.10;;
8100;SDS011;4093;53.470;9.832;2024-03-25T07:42:08;8.33;;;3.97;;
8100;SDS011;4093;53.470;9.832;2024-03-25T07:44:33;8.77;;;3.73;;
8100;SDS011;4093;53.470;9.832;2024-03-25T07:46:59;10.13;;;3.80;;
8100;SDS011;4093;53.470;9.832;2024-03-25T07:49:26;7.93;;;3.87;;
8100;SDS011;4093;53.470;9.832;2024-03-25T07:51:52;11.20;;;3.90;;
8100;SDS011;4093;53.470;9.832;2024-03-25T07:54:18;8.00;;;3.90;;
8100;SDS011;4093;53.470;9.832;2024-03-25T07:56:44;7.80;;;3.87;;
8100;SDS011;4093;53.470;9.832;2024-03-25T07:59:09;5.87;;;4.20;;
8100;SDS011;4093;53.470;9.832;2024-03-25T08:01:35;9.73;;;4.20;;
8100;SDS011;4093;53.470;9.832;2024-03-25T08:04:01;14.90;;;4.53;;
8100;SDS011;4093;53.470;9.832;2024-03-25T08:06:29;10.77;;;4.60;;
8100;SDS011;4093;53.470;9.832;2024-03-25T08:08:54;10.00;;;4.10;;
8100;SDS011;4093;53.470;9.832;2024-03-25T08:11:20;13.50;;;4.67;;
8100;SDS011;4093;53.470;9.832;2024-03-25T08:13:46;11.40;;;4.50;;
8100;SDS011;4093;53.470;9.832;2024-03-25T08:16:12;8.73;;;4.00;;
8100;SDS011;4093;53.470;9.832;2024-03-25T08:18:38;12.03;;;3.70;;
8100;SDS011;4093;53.470;9.832;2024-03-25T08:21:03;8.83;;;3.10;;
8100;SDS011;4093;53.470;9.832;2024-03-25T08:23:31;10.27;;;3.67;;
8100;SDS011;4093;53.470;9.832;2024-03-25T08:25:57;7.00;;;3.00;;
8100;SDS011;4093;53.470;9.832;2024-03-25T08:28:22;10.17;;;3.50;;
8100;SDS011;4093;53.470;9.832;2024-03-25T08:30:48;10.20;;;2.93;;
8100;SDS011;4093;53.470;9.832;2024-03-25T08:33:14;5.80;;;2.90;;
8100;SDS011;4093;53.470;9.832;2024-03-25T08:35:40;7.77;;;2.57;;
8100;SDS011;4093;53.470;9.832;2024-03-25T08:38:06;12.97;;;3.63;;
8100;SDS011;4093;53.470;9.832;2024-03-25T08:40:33;8.47;;;2.80;;
8100;SDS011;4093;53.470;9.832;2024-03-25T08:42:59;8.77;;;2.60;;
8100;SDS011;4093;53.470;9.832;2024-03-25T08:45:25;9.53;;;3.03;;
8100;SDS011;4093;53.470;9.832;2024-03-25T08:47:51;9.90;;;3.23;;
8100;SDS011;4093;53.470;9.832;2024-03-25T08:50:16;11.73;;;3.03;;
8100;SDS011;4093;53.470;9.832;2024-03-25T08:52:42;11.40;;;3.50;;
8100;SDS011;4093;53.470;9.832;2024-03-25T08:55:08;10.30;;;2.73;;
8100;SDS011;4093;53.470;9.832;2024-03-25T08:57:36;10.20;;;3.23;;
8100;SDS011;4093;53.470;9.832;2024-03-25T09:00:01;8.97;;;3.13;;
8100;SDS011;4093;53.470;9.832;2024-03-25T09:02:28;8.73;;;3.00;;
8100;SDS011;4093;53.470;9.832;2024-03-25T09:04:54;7.70;;;3.10;;
8100;SDS011;4093;53.470;9.832;2024-03-25T09:07:19;8.50;;;3.10;;
8100;SDS011;4093;53.470;9.832;2024-03-25T09:09:45;9.13;;;3.00;;
8100;SDS011;4093;53.470;9.832;2024-03-25T09:12:29;8.40;;;2.90;;
8100;SDS011;4093;53.470;9.832;2024-03-25T09:14:57;10.50;;;3.03;;
8100;SDS011;4093;53.470;9.832;2024-03-25T09:17:23;9.37;;;3.17;;
8100;SDS011;4093;53.470;9.832;2024-03-25T09:19:49;9.10;;;3.00;;
8100;SDS011;4093;53.470;9.832;2024-03-25T09:22:15;8.60;;;3.03;;
8100;SDS011;4093;53.470;9.832;2024-03-25T09:24:41;11.23;;;3.33;;
8100;SDS011;4093;53.470;9.832;2024-03-25T09:27:07;8.50;;;3.43;;
8100;SDS011;4093;53.470;9.832;2024-03-25T09:29:33;7.77;;;2.83;;
8100;SDS011;4093;53.470;9.832;2024-03-25T09:32:00;11.90;;;3.60;;
8100;SDS011;4093;53.470;9.832;2024-03-25T09:34:26;6.17;;;3.10;;
8100;SDS011;4093;53.470;9.832;2024-03-25T09:36:52;8.30;;;3.30;;
8100;SDS011;4093;53.470;9.832;2024-03-25T09:39:21;6.80;;;3.37;;
8100;SDS011;4093;53.470;9.832;2024-03-25T09:41:46;8.77;;;3.10;;
8100;SDS011;4093;53.470;9.832;2024-03-25T09:44:13;8.10;;;3.53;;
8100;SDS011;4093;53.470;9.832;2024-03-25T09:46:39;6.67;;;2.93;;
8100;SDS011;4093;53.470;9.832;2024-03-25T09:49:07;5.37;;;2.90;;
8100;SDS011;4093;53.470;9.832;2024-03-25T09:51:33;8.73;;;3.07;;
8100;SDS011;4093;53.470;9.832;2024-03-25T09:53:58;10.37;;;3.27;;
8100;SDS011;4093;53.470;9.832;2024-03-25T09:56:24;10.17;;;3.13;;
8100;SDS011;4093;53.470;9.832;2024-03-25T09:58:50;11.37;;;3.40;;
8100;SDS011;4093;53.470;9.832;2024-03-25T10:01:17;8.93;;;2.97;;
8100;SDS011;4093;53.470;9.832;2024-03-25T10:03:43;10.57;;;3.20;;
8100;SDS011;4093;53.470;9.832;2024-03-25T10:06:11;5.73;;;2.90;;
8100;SDS011;4093;53.470;9.832;2024-03-25T10:08:37;11.20;;;3.17;;
8100;SDS011;4093;53.470;9.832;2024-03-25T10:11:03;11.83;;;2.93;;
8100;SDS011;4093;53.470;9.832;2024-03-25T10:13:28;9.87;;;3.37;;
8100;SDS011;4093;53.470;9.832;2024-03-25T10:15:54;4.70;;;2.47;;
8100;SDS011;4093;53.470;9.832;2024-03-25T10:18:20;5.90;;;2.60;;
8100;SDS011;4093;53.470;9.832;2024-03-25T10:20:49;6.10;;;2.77;;
8100;SDS011;4093;53.470;9.832;2024-03-25T10:23:19;6.97;;;2.73;;
8100;SDS011;4093;53.470;9.832;2024-03-25T10:25:47;6.33;;;2.60;;
8100;SDS011;4093;53.470;9.832;2024-03-25T10:28:13;7.20;;;2.60;;
8100;SDS011;4093;53.470;9.832;2024-03-25T10:30:39;6.67;;;2.27;;
8100;SDS011;4093;53.470;9.832;2024-03-25T10:33:06;7.10;;;2.30;;
8100;SDS011;4093;53.470;9.832;2024-03-25T10:35:34;5.87;;;2.83;;
8100;SDS011;4093;53.470;9.832;2024-03-25T10:38:01;7.03;;;2.63;;
8100;SDS011;4093;53.470;9.832;2024-03-25T10:40:29;6.00;;;3.10;;
8100;SDS011;4093;53.470;9.832;2024-03-25T10:43:00;6.27;;;2.80;;
8100;SDS011;4093;53.470;9.832;2024-03-25T10:45:32;9.67;;;2.50;;
8100;SDS011;4093;53.470;9.832;2024-03-25T10:48:00;11.57;;;2.90;;
8100;SDS011;4093;53.470;9.832;2024-03-25T10:50:29;6.17;;;2.87;;
8100;SDS011;4093;53.470;9.832;2024-03-25T10:52:56;7.43;;;2.83;;
8100;SDS011;4093;53.470;9.832;2024-03-25T10:55:23;9.07;;;2.80;;
8100;SDS011;4093;53.470;9.832;2024-03-25T10:57:51;8.40;;;2.50;;
8100;SDS011;4093;53.470;9.832;2024-03-25T11:00:19;4.60;;;2.40;;
8100;SDS011;4093;53.470;9.832;2024-03-25T11:02:48;8.70;;;2.83;;
8100;SDS011;4093;53.470;9.832;2024-03-25T11:05:15;10.77;;;2.80;;
8100;SDS011;4093;53.470;9.832;2024-03-25T11:07:41;5.27;;;1.93;;
8100;SDS011;4093;53.470;9.832;2024-03-25T11:10:07;7.57;;;2.67;;
8100;SDS011;4093;53.470;9.832;2024-03-25T11:12:34;6.30;;;2.43;;
8100;SDS011;4093;53.470;9.832;2024-03-25T11:15:02;5.37;;;2.83;;
8100;SDS011;4093;53.470;9.832;2024-03-25T11:17:29;10.27;;;2.80;;
8100;SDS011;4093;53.470;9.832;2024-03-25T11:20:05;6.47;;;2.40;;
8100;SDS011;4093;53.470;9.832;2024-03-25T11:22:32;6.73;;;2.40;;
8100;SDS011;4093;53.470;9.832;2024-03-25T11:25:04;7.17;;;2.67;;
8100;SDS011;4093;53.470;9.832;2024-03-25T11:27:31;9.33;;;2.70;;
8100;SDS011;4093;53.470;9.832;2024-03-25T11:29:57;8.10;;;2.63;;
8100;SDS011;4093;53.470;9.832;2024-03-25T11:32:25;4.23;;;2.43;;
8100;SDS011;4093;53.470;9.832;2024-03-25T11:34:52;8.40;;;2.57;;
8100;SDS011;4093;53.470;9.832;2024-03-25T11:37:18;8.13;;;2.70;;
8100;SDS011;4093;53.470;9.832;2024-03-25T11:39:44;8.50;;;2.60;;
8100;SDS011;4093;53.470;9.832;2024-03-25T11:42:10;6.93;;;2.87;;
8100;SDS011;4093;53.470;9.832;2024-03-25T11:44:38;6.03;;;2.50;;
8100;SDS011;4093;53.470;9.832;2024-03-25T11:47:04;6.50;;;2.87;;
8100;SDS011;4093;53.470;9.832;2024-03-25T11:49:32;8.80;;;2.60;;
8100;SDS011;4093;53.470;9.832;2024-03-25T11:51:58;7.97;;;3.17;;
8100;SDS011;4093;53.470;9.832;2024-03-25T11:54:26;5.70;;;2.50;;
8100;SDS011;4093;53.470;9.832;2024-03-25T11:56:53;9.90;;;2.90;;
8100;SDS011;4093;53.470;9.832;2024-03-25T11:59:19;9.23;;;3.00;;
8100;SDS011;4093;53.470;9.832;2024-03-25T12:01:45;7.17;;;2.67;;
8100;SDS011;4093;53.470;9.832;2024-03-25T12:04:11;7.17;;;2.30;;
8100;SDS011;4093;53.470;9.832;2024-03-25T12:06:39;5.30;;;2.50;;
8100;SDS011;4093;53.470;9.832;2024-03-25T12:09:06;6.47;;;2.30;;
8100;SDS011;4093;53.470;9.832;2024-03-25T12:11:51;4.10;;;2.33;;
8100;SDS011;4093;53.470;9.832;2024-03-25T12:14:17;7.77;;;2.77;;
8100;SDS011;4093;53.470;9.832;2024-03-25T12:16:44;5.67;;;2.70;;
8100;SDS011;4093;53.470;9.832;2024-03-25T12:19:10;7.63;;;3.30;;
8100;SDS011;4093;53.470;9.832;2024-03-25T12:21:36;10.47;;;2.70;;
8100;SDS011;4093;53.470;9.832;2024-03-25T12:24:04;7.67;;;2.73;;
8100;SDS011;4093;53.470;9.832;2024-03-25T12:26:30;4.20;;;2.50;;
8100;SDS011;4093;53.470;9.832;2024-03-25T12:28:56;9.27;;;2.97;;
8100;SDS011;4093;53.470;9.832;2024-03-25T12:31:23;10.40;;;3.00;;
8100;SDS011;4093;53.470;9.832;2024-03-25T12:33:49;6.70;;;2.87;;
8100;SDS011;4093;53.470;9.832;2024-03-25T12:36:15;8.57;;;3.17;;
8100;SDS011;4093;53.470;9.832;2024-03-25T12:38:40;5.20;;;2.73;;
8100;SDS011;4093;53.470;9.832;2024-03-25T12:41:08;6.87;;;2.83;;
8100;SDS011;4093;53.470;9.832;2024-03-25T12:43:35;7.77;;;2.83;;
8100;SDS011;4093;53.470;9.832;2024-03-25T12:46:07;5.47;;;2.40;;
8100;SDS011;4093;53.470;9.832;2024-03-25T12:48:33;6.40;;;2.77;;
8100;SDS011;4093;53.470;9.832;2024-03-25T12:50:58;4.73;;;2.13;;
8100;SDS011;4093;53.470;9.832;2024-03-25T12:53:24;5.13;;;2.10;;
8100;SDS011;4093;53.470;9.832;2024-03-25T12:55:50;4.97;;;1.90;;
8100;SDS011;4093;53.470;9.832;2024-03-25T12:58:17;3.80;;;2.17;;
8100;SDS011;4093;53.470;9.832;2024-03-25T13:00:43;6.30;;;2.37;;
8100;SDS011;4093;53.470;9.832;2024-03-25T13:03:09;5.93;;;2.57;;
8100;SDS011;4093;53.470;9.832;2024-03-25T13:05:35;4.73;;;2.17;;
8100;SDS011;4093;53.470;9.832;2024-03-25T13:08:02;5.83;;;2.33;;
8100;SDS011;4093;53.470;9.832;2024-03-25T13:10:28;6.37;;;2.77;;
8100;SDS011;4093;53.470;9.832;2024-03-25T13:12:55;4.97;;;2.30;;
8100;SDS011;4093;53.470;9.832;2024-03-25T13:15:22;10.20;;;3.60;;
8100;SDS011;4093;53.470;9.832;2024-03-25T13:17:48;6.90;;;2.67;;
8100;SDS011;4093;53.470;9.832;2024-03-25T13:20:14;4.47;;;2.67;;
8100;SDS011;4093;53.470;9.832;2024-03-25T13:22:40;4.47;;;2.60;;
8100;SDS011;4093;53.470;9.832;2024-03-25T13:25:06;4.57;;;2.47;;
8100;SDS011;4093;53.470;9.832;2024-03-25T13:27:33;5.63;;;2.50;;
8100;SDS011;4093;53.470;9.832;2024-03-25T13:29:59;7.03;;;3.00;;
8100;SDS011;4093;53.470;9.832;2024-03-25T13:32:26;6.60;;;2.83;;
8100;SDS011;4093;53.470;9.832;2024-03-25T13:34:51;7.47;;;4.30;;
8100;SDS011;4093;53.470;9.832;2024-03-25T13:37:17;15.17;;;3.63;;
8100;SDS011;4093;53.470;9.832;2024-03-25T13:39:43;7.03;;;2.87;;
8100;SDS011;4093;53.470;9.832;2024-03-25T13:42:09;6.30;;;2.53;;
8100;SDS011;4093;53.470;9.832;2024-03-25T13:44:35;13.23;;;3.60;;
8100;SDS011;4093;53.470;9.832;2024-03-25T13:47:01;7.03;;;2.77;;
8100;SDS011;4093;53.470;9.832;2024-03-25T13:49:28;5.83;;;2.73;;
8100;SDS011;4093;53.470;9.832;2024-03-25T13:51:55;5.90;;;3.60;;
8100;SDS011;4093;53.470;9.832;2024-03-25T13:54:22;8.37;;;3.77;;
8100;SDS011;4093;53.470;9.832;2024-03-25T13:56:48;6.73;;;3.00;;
8100;SDS011;4093;53.470;9.832;2024-03-25T13:59:14;6.43;;;2.70;;
8100;SDS011;4093;53.470;9.832;2024-03-25T14:01:40;7.07;;;2.63;;
8100;SDS011;4093;53.470;9.832;2024-03-25T14:04:06;7.07;;;2.83;;
8100;SDS011;4093;53.470;9.832;2024-03-25T14:06:33;6.60;;;2.83;;
8100;SDS011;4093;53.470;9.832;2024-03-25T14:08:59;4.70;;;2.80;;
8100;SDS011;4093;53.470;9.832;2024-03-25T14:11:25;6.53;;;2.97;;
8100;SDS011;4093;53.470;9.832;2024-03-25T14:13:51;4.07;;;2.40;;
8100;SDS011;4093;53.470;9.832;2024-03-25T14:16:17;6.77;;;2.30;;
8100;SDS011;4093;53.470;9.832;2024-03-25T14:18:42;3.23;;;2.37;;
8100;SDS011;4093;53.470;9.832;2024-03-25T14:21:08;6.90;;;2.77;;
8100;SDS011;4093;53.470;9.832;2024-03-25T14:23:35;6.70;;;1.93;;
8100;SDS011;4093;53.470;9.832;2024-03-25T14:26:01;5.20;;;2.20;;
8100;SDS011;4093;53.470;9.832;2024-03-25T14:28:27;4.97;;;2.40;;
8100;SDS011;4093;53.470;9.832;2024-03-25T14:30:53;5.63;;;2.33;;
8100;SDS011;4093;53.470;9.832;2024-03-25T14:33:19;6.37;;;2.83;;
8100;SDS011;4093;53.470;9.832;2024-03-25T14:35:45;4.17;;;2.00;;
8100;SDS011;4093;53.470;9.832;2024-03-25T14:38:11;9.17;;;2.70;;
8100;SDS011;4093;53.470;9.832;2024-03-25T14:40:38;4.43;;;2.40;;
8100;SDS011;4093;53.470;9.832;2024-03-25T14:43:04;7.57;;;2.93;;
8100;SDS011;4093;53.470;9.832;2024-03-25T14:45:30;5.30;;;2.50;;
8100;SDS011;4093;53.470;9.832;2024-03-25T14:47:56;7.23;;;2.63;;
8100;SDS011;4093;53.470;9.832;2024-03-25T14:50:22;5.70;;;2.30;;
8100;SDS011;4093;53.470;9.832;2024-03-25T14:52:48;3.50;;;2.20;;
8100;SDS011;4093;53.470;9.832;2024-03-25T14:55:14;5.60;;;2.50;;
8100;SDS011;4093;53.470;9.832;2024-03-25T14:57:41;4.77;;;2.40;;
8100;SDS011;4093;53.470;9.832;2024-03-25T15:00:07;5.97;;;2.30;;
8100;SDS011;4093;53.470;9.832;2024-03-25T15:02:34;4.70;;;2.33;;
8100;SDS011;4093;53.470;9.832;2024-03-25T15:04:59;4.40;;;2.33;;
8100;SDS011;4093;53.470;9.832;2024-03-25T15:07:26;6.43;;;2.63;;
8100;SDS011;4093;53.470;9.832;2024-03-25T15:09:52;6.23;;;2.83;;
8100;SDS011;4093;53.470;9.832;2024-03-25T15:12:18;5.23;;;2.40;;